createdAt,value
2022-09-16T00:00:27.933Z,2186.40
2022-09-16T00:02:58.468Z,2201.97
2022-09-16T00:05:29.651Z,2145.43
2022-09-16T00:07:58.478Z,2153.57
2022-09-16T00:10:28.674Z,2034.63
2022-09-16T00:12:59.826Z,2235.43
2022-09-16T00:15:30.529Z,1965.53
2022-09-16T00:17:59.779Z,2059.83
2022-09-16T00:20:31.583Z,2144.30
2022-09-16T00:22:59.696Z,2031.67
2022-09-16T00:25:30.638Z,2032.43
2022-09-16T00:28:02.613Z,2096.23
2022-09-16T00:30:30.695Z,2093.00
2022-09-16T00:33:03.369Z,2001.63
2022-09-16T00:35:33.889Z,2132.57
2022-09-16T00:38:01.984Z,1872.63
2022-09-16T00:40:32.407Z,2093.23
2022-09-16T00:43:05.125Z,2230.67
2022-09-16T00:45:36.141Z,2165.80
2022-09-16T00:48:07.337Z,2259.50
2022-09-16T00:50:38.964Z,2113.43
2022-09-16T00:53:10.661Z,2075.67
2022-09-16T00:55:40.123Z,2159.53
2022-09-16T00:58:18.268Z,2145.97
2022-09-16T01:00:46.966Z,2235.93
2022-09-16T01:03:15.002Z,2051.87
2022-09-16T01:05:47.449Z,2091.10
2022-09-16T01:08:15.633Z,1893.70
2022-09-16T01:10:43.961Z,2006.63
2022-09-16T01:13:16.776Z,2065.63
2022-09-16T01:15:52.714Z,2072.23
2022-09-16T01:18:28.025Z,2027.43
2022-09-16T01:21:14.887Z,2135.43
2022-09-16T01:24:23.893Z,2051.97
2022-09-16T01:27:31.628Z,1910.50
2022-09-16T01:30:31.023Z,1949.60
2022-09-16T01:33:05.201Z,1903.27
2022-09-16T01:35:55.765Z,2000.80
2022-09-16T01:38:38.916Z,2094.40
2022-09-16T01:41:17.406Z,1900.03
2022-09-16T01:43:54.737Z,2092.03
2022-09-16T01:46:37.640Z,1864.33
2022-09-16T01:49:18.173Z,2034.70
2022-09-16T01:51:54.529Z,1998.90
2022-09-16T01:54:33.305Z,2067.70
2022-09-16T01:57:06.007Z,2046.50
2022-09-16T01:59:40.866Z,1986.03
2022-09-16T02:02:20.236Z,1961.53
2022-09-16T02:04:55.041Z,1997.93
2022-09-16T02:07:27.489Z,1914.97
2022-09-16T02:09:59.404Z,2071.30
2022-09-16T02:12:35.122Z,2013.97
2022-09-16T02:15:08.127Z,2010.73
2022-09-16T02:17:44.541Z,2077.07
2022-09-16T02:20:18.590Z,1988.63
2022-09-16T02:22:51.791Z,1877.73
2022-09-16T02:25:21.080Z,1931.90
2022-09-16T02:27:50.869Z,1885.07
2022-09-16T02:30:24.724Z,1960.47
2022-09-16T02:32:59.408Z,2019.40
2022-09-16T02:35:29.800Z,2077.47
2022-09-16T02:38:04.699Z,1999.97
2022-09-16T02:40:37.551Z,1838.97
2022-09-16T02:43:05.931Z,1992.07
2022-09-16T02:45:41.777Z,1939.20
2022-09-16T02:48:18.818Z,1888.00
2022-09-16T02:50:54.930Z,1908.97
2022-09-16T02:53:32.377Z,1877.73
2022-09-16T02:56:06.104Z,1868.07
2022-09-16T02:58:34.350Z,1865.20
2022-09-16T03:01:05.991Z,1924.47
2022-09-16T03:03:36.065Z,1936.77
2022-09-16T03:06:21.171Z,2070.77
2022-09-16T03:08:50.976Z,1914.57
2022-09-16T03:11:41.663Z,1971.27
2022-09-16T03:14:37.666Z,2065.43
2022-09-16T03:17:20.551Z,1979.00
2022-09-16T03:20:05.309Z,1909.40
2022-09-16T03:22:46.986Z,1966.67
2022-09-16T03:25:30.464Z,1978.97
2022-09-16T03:28:08.694Z,2010.97
2022-09-16T03:30:42.132Z,2010.53
2022-09-16T03:33:20.126Z,1892.23
2022-09-16T03:35:57.337Z,1942.33
2022-09-16T03:38:25.727Z,1968.33
2022-09-16T03:40:54.617Z,1944.20
2022-09-16T03:43:25.662Z,2114.13
2022-09-16T03:45:54.235Z,1921.37
2022-09-16T03:48:22.383Z,1904.83
2022-09-16T03:50:51.915Z,2047.73
2022-09-16T03:53:20.721Z,1971.03
2022-09-16T03:55:49.744Z,1952.13
2022-09-16T03:58:17.892Z,1877.67
2022-09-16T04:00:51.754Z,1944.73
2022-09-16T04:03:21.250Z,1864.83
2022-09-16T04:05:55.533Z,1935.80
2022-09-16T04:08:25.959Z,1870.03
2022-09-16T04:10:57.834Z,1868.40
2022-09-16T04:13:26.613Z,1861.93
2022-09-16T04:15:55.031Z,1928.13
2022-09-16T04:18:25.395Z,1942.83
2022-09-16T04:20:58.920Z,1977.57
2022-09-16T04:23:27.515Z,1936.03
2022-09-16T04:25:56.336Z,1952.80
2022-09-16T04:28:36.970Z,1862.23
2022-09-16T04:31:26.326Z,1926.27
2022-09-16T04:34:04.292Z,1980.50
2022-09-16T04:36:51.744Z,1822.57
2022-09-16T04:39:26.170Z,1867.07
2022-09-16T04:42:01.801Z,2006.93
2022-09-16T04:44:32.491Z,1930.20
2022-09-16T04:47:04.480Z,2004.23
2022-09-16T04:49:41.810Z,1940.73
2022-09-16T04:52:21.516Z,1885.43
2022-09-16T04:55:04.128Z,1977.90
2022-09-16T04:57:38.392Z,2022.53
2022-09-16T05:00:26.958Z,2033.73
2022-09-16T05:02:59.256Z,1881.17
2022-09-16T05:05:28.048Z,2113.90
2022-09-16T05:08:05.340Z,1875.40
2022-09-16T05:10:48.860Z,1960.57
2022-09-16T05:13:26.225Z,1916.70
2022-09-16T05:15:59.888Z,1965.07
2022-09-16T05:18:37.351Z,2069.50
2022-09-16T05:21:12.455Z,2019.37
2022-09-16T05:23:48.312Z,2033.37
2022-09-16T05:26:20.998Z,2157.37
2022-09-16T05:28:55.220Z,2101.87
2022-09-16T05:31:38.291Z,1981.80
2022-09-16T05:34:14.154Z,2129.53
2022-09-16T05:36:51.001Z,1924.53
2022-09-16T05:39:29.960Z,1849.83
2022-09-16T05:42:07.666Z,1909.93
2022-09-16T05:44:40.735Z,1908.43
2022-09-16T05:47:15.241Z,1919.80
2022-09-16T05:49:44.989Z,2050.93
2022-09-16T05:52:14.709Z,2012.03
2022-09-16T05:54:44.752Z,2082.13
2022-09-16T05:57:14.647Z,2157.37
2022-09-16T05:59:43.147Z,2132.37
2022-09-16T06:02:12.849Z,2117.50
2022-09-16T06:04:41.303Z,2062.07
2022-09-16T06:07:09.574Z,1928.87
2022-09-16T06:09:37.894Z,1906.47
2022-09-16T06:12:08.171Z,2039.00
2022-09-16T06:14:36.530Z,2257.10
2022-09-16T06:17:05.080Z,2228.47
2022-09-16T06:19:33.460Z,2190.07
2022-09-16T06:22:01.900Z,2112.07
2022-09-16T06:24:30.007Z,2186.30
2022-09-16T06:26:58.511Z,2134.57
2022-09-16T06:29:28.626Z,2161.70
2022-09-16T06:31:57.291Z,2099.27
2022-09-16T06:34:26.845Z,2266.67
2022-09-16T06:36:55.143Z,2219.70
2022-09-16T06:39:24.145Z,2211.50
2022-09-16T06:41:53.037Z,2131.70
2022-09-16T06:44:39.354Z,2095.53
2022-09-16T06:47:11.122Z,2044.17
2022-09-16T06:49:40.636Z,1866.87
2022-09-16T06:52:09.541Z,1836.70
2022-09-16T06:54:37.940Z,1635.40
2022-09-16T06:57:11.895Z,2107.47
2022-09-16T06:59:42.219Z,1087.53
2022-09-16T07:02:12.100Z,1234.80
2022-09-16T07:04:40.819Z,1709.10
2022-09-16T07:07:10.775Z,1884.37
2022-09-16T07:09:39.270Z,2056.30
2022-09-16T07:12:08.435Z,1960.47
2022-09-16T07:14:38.986Z,2073.13
2022-09-16T07:17:10.894Z,2014.57
2022-09-16T07:19:42.457Z,1869.47
2022-09-16T07:22:12.987Z,1665.67
2022-09-16T07:24:43.373Z,2038.67
2022-09-16T07:27:13.714Z,2038.33
2022-09-16T07:29:44.448Z,1942.73
2022-09-16T07:32:16.774Z,2266.67
2022-09-16T07:34:47.521Z,2266.67
2022-09-16T07:37:20.111Z,2266.67
2022-09-16T07:39:50.623Z,2266.67
2022-09-16T07:42:21.059Z,2266.67
2022-09-16T07:44:51.872Z,2266.67
2022-09-16T07:47:23.939Z,2266.67
2022-09-16T07:49:56.160Z,2266.67
2022-09-16T07:52:29.835Z,2266.67
2022-09-16T07:55:00.766Z,2266.67
2022-09-16T07:57:31.242Z,2266.67
2022-09-16T08:00:01.761Z,2266.67
2022-09-16T08:02:43.701Z,2266.67
2022-09-16T08:05:16.278Z,2266.67
2022-09-16T08:07:46.886Z,2266.67
2022-09-16T08:10:18.119Z,2266.67
2022-09-16T08:12:48.990Z,2266.67
2022-09-16T08:17:56.563Z,2266.67
2022-09-16T08:20:28.399Z,2266.67
2022-09-16T08:22:58.707Z,2266.67
2022-09-16T08:25:29.765Z,2266.67
2022-09-16T08:28:00.460Z,2266.67
2022-09-16T08:30:31.675Z,2266.67
2022-09-16T08:33:03.568Z,2266.67
2022-09-16T08:35:34.300Z,2266.67
2022-09-16T08:38:05.871Z,2266.67
2022-09-16T08:40:37.995Z,2266.67
2022-09-16T08:43:16.879Z,2266.67
2022-09-16T08:45:55.458Z,2266.67
2022-09-16T08:48:36.674Z,2266.67
2022-09-16T08:51:10.680Z,2266.67
2022-09-16T08:53:45.045Z,2266.67
2022-09-16T08:56:20.127Z,2266.67
2022-09-16T08:58:54.663Z,2266.67
2022-09-16T09:01:34.147Z,2266.67
2022-09-16T09:04:07.189Z,2266.67
2022-09-16T09:07:00.536Z,2266.67
2022-09-16T09:09:48.076Z,2266.67
2022-09-16T09:12:26.868Z,2266.67
2022-09-16T09:15:07.643Z,2266.67
2022-09-16T09:17:52.729Z,2266.67
2022-09-16T09:20:37.821Z,2266.67
2022-09-16T09:23:36.334Z,2266.67
2022-09-16T09:26:17.116Z,2266.67
2022-09-16T09:29:12.553Z,2266.67
2022-09-16T09:31:54.560Z,2266.67
2022-09-16T09:34:44.655Z,2266.67
2022-09-16T09:37:30.314Z,2266.67
2022-09-16T09:40:11.044Z,2266.67
2022-09-16T09:42:46.988Z,2266.67
2022-09-16T09:45:28.514Z,2266.67
2022-09-16T09:48:03.619Z,2266.67
2022-09-16T09:50:41.898Z,2266.67
2022-09-16T09:53:20.034Z,2266.67
2022-09-16T09:55:55.741Z,2266.67
2022-09-16T09:58:32.641Z,2266.67
2022-09-16T10:01:03.121Z,2266.67
2022-09-16T10:03:33.701Z,2266.67
2022-09-16T10:06:04.181Z,2266.67
2022-09-16T10:08:42.588Z,2266.67
2022-09-16T10:11:18.664Z,2266.67
2022-09-16T10:13:49.905Z,2266.67
2022-09-16T10:16:25.998Z,2266.67
2022-09-16T10:19:03.249Z,2266.67
2022-09-16T10:21:43.671Z,2266.67
2022-09-16T10:24:34.505Z,2266.67
2022-09-16T10:27:21.131Z,2266.67
2022-09-16T10:30:08.397Z,2266.67
2022-09-16T10:32:47.959Z,2266.67
2022-09-16T10:35:24.249Z,2266.67
2022-09-16T10:37:57.025Z,1754.13
2022-09-16T10:40:29.959Z,1996.57
2022-09-16T10:43:03.875Z,1598.07
2022-09-16T10:45:38.065Z,2266.67
2022-09-16T10:48:14.913Z,1925.60
2022-09-16T10:50:54.333Z,2266.67
2022-09-16T10:53:37.645Z,1943.13
2022-09-16T10:56:20.474Z,1148.33
2022-09-16T10:58:51.265Z,1966.90
2022-09-16T11:01:40.094Z,2266.67
2022-09-16T11:04:39.159Z,2266.67
2022-09-16T11:07:18.090Z,2266.67
2022-09-16T11:09:59.419Z,2266.67
2022-09-16T11:13:06.410Z,2266.67
2022-09-16T11:15:50.057Z,2266.67
2022-09-16T11:18:39.325Z,2266.67
2022-09-16T11:21:29.243Z,2266.67
2022-09-16T11:24:16.145Z,2266.67
2022-09-16T11:26:55.296Z,2266.67
2022-09-16T11:29:50.531Z,2266.67
2022-09-16T11:32:31.154Z,2266.67
2022-09-16T11:35:21.101Z,2266.67
2022-09-16T11:37:58.450Z,2266.67
2022-09-16T11:40:38.817Z,2266.67
2022-09-16T11:43:46.316Z,2266.67
2022-09-16T11:46:24.605Z,2266.67
2022-09-16T11:49:08.603Z,2266.67
2022-09-16T11:51:55.938Z,2266.67
2022-09-16T11:54:52.284Z,2266.67
2022-09-16T11:57:30.265Z,2266.67
2022-09-16T12:00:05.465Z,2266.67
2022-09-16T12:02:47.895Z,2266.67
2022-09-16T12:05:21.709Z,2266.67
2022-09-16T12:07:58.416Z,2266.67
2022-09-16T12:10:33.922Z,2266.67
2022-09-16T12:13:10.010Z,2266.67
2022-09-16T12:15:46.215Z,2266.67
2022-09-16T12:18:21.625Z,2266.67
2022-09-16T12:20:58.721Z,2266.67
2022-09-16T12:23:34.953Z,2266.67
2022-09-16T12:26:10.050Z,2266.67
2022-09-16T12:28:46.620Z,2266.67
2022-09-16T12:31:27.530Z,2266.67
2022-09-16T12:34:06.114Z,2266.67
2022-09-16T12:36:40.570Z,2266.67
2022-09-16T12:39:12.686Z,2266.67
2022-09-16T12:42:05.384Z,2266.67
2022-09-16T12:44:58.013Z,2266.67
2022-09-16T12:47:51.885Z,2266.67
2022-09-16T12:50:53.904Z,2266.67
2022-09-16T12:53:55.752Z,2266.67
2022-09-16T12:56:41.861Z,2266.67
2022-09-16T12:59:48.689Z,2266.67
2022-09-16T13:02:21.906Z,2266.67
2022-09-16T13:04:55.681Z,2266.67
2022-09-16T13:07:30.435Z,2266.67
2022-09-16T13:10:04.113Z,2266.67
2022-09-16T13:12:42.797Z,2266.67
2022-09-16T13:15:25.820Z,2266.67
2022-09-16T13:17:57.239Z,2266.67
2022-09-16T13:20:33.557Z,1752.60
2022-09-16T13:23:08.898Z,1851.43
2022-09-16T13:26:07.648Z,1877.47
2022-09-16T13:28:57.357Z,1700.50
2022-09-16T13:34:50.973Z,2266.67
2022-09-16T13:40:40.250Z,2266.67
2022-09-16T13:43:18.140Z,2266.67
2022-09-16T13:46:06.232Z,2266.67
2022-09-16T13:48:52.729Z,2266.67
2022-09-16T13:51:36.332Z,2266.67
2022-09-16T13:55:09.486Z,2266.67
2022-09-16T13:57:53.337Z,2266.67
2022-09-16T14:04:17.099Z,2266.67
2022-09-16T14:07:09.769Z,2266.67
2022-09-16T14:10:08.021Z,2266.67
2022-09-16T14:12:59.672Z,2266.67
2022-09-16T14:15:50.013Z,1904.43
2022-09-16T14:18:35.154Z,2031.97
2022-09-16T14:21:21.266Z,1506.37
2022-09-16T14:24:15.386Z,891.97
2022-09-16T14:26:58.914Z,2266.67
2022-09-16T14:29:31.015Z,1861.87
2022-09-16T14:32:17.654Z,1750.50
2022-09-16T14:34:50.466Z,1712.80
2022-09-16T14:40:28.581Z,2266.67
2022-09-16T14:43:14.935Z,1877.27
2022-09-16T14:48:46.250Z,1775.80
2022-09-16T14:51:27.942Z,1915.47
2022-09-16T14:54:32.463Z,1971.83
2022-09-16T14:57:11.865Z,1299.87
2022-09-16T14:59:49.455Z,1537.73
2022-09-16T15:02:49.307Z,2051.83
2022-09-16T15:05:27.716Z,2266.67
2022-09-16T15:08:27.647Z,1696.83
2022-09-16T15:11:07.715Z,1950.00
2022-09-16T15:13:51.107Z,1152.43
2022-09-16T15:16:37.654Z,1503.77
2022-09-16T15:19:32.499Z,2042.43
2022-09-16T15:25:01.787Z,1485.67
2022-09-16T15:27:53.162Z,1783.80
2022-09-16T15:30:47.435Z,1756.87
2022-09-16T15:33:42.127Z,1482.73
2022-09-16T15:36:46.271Z,1584.00
2022-09-16T15:39:43.777Z,1635.67
2022-09-16T15:42:26.314Z,2104.50
2022-09-16T15:45:16.596Z,1814.00
2022-09-16T15:48:22.612Z,1756.17
2022-09-16T15:51:29.227Z,1789.60
2022-09-16T15:57:22.059Z,1430.33
2022-09-16T16:00:14.422Z,1716.00
2022-09-16T16:02:56.967Z,2072.20
2022-09-16T16:05:39.696Z,2027.23
2022-09-16T16:08:25.334Z,1942.37
2022-09-16T16:11:27.016Z,2266.67
2022-09-16T16:14:22.064Z,1646.53
2022-09-16T16:17:19.025Z,1554.53
2022-09-16T16:19:58.213Z,1476.13
2022-09-16T16:22:49.750Z,1544.80
2022-09-16T16:25:20.719Z,1409.83
2022-09-16T16:28:18.330Z,1672.47
2022-09-16T16:34:09.486Z,1410.67
2022-09-16T16:36:59.105Z,1346.10
2022-09-16T16:39:33.486Z,1345.87
2022-09-16T16:42:08.372Z,1641.00
2022-09-16T16:44:46.897Z,1591.27
2022-09-16T16:47:21.686Z,1812.67
2022-09-16T16:50:04.792Z,1734.20
2022-09-16T16:52:39.566Z,1874.53
2022-09-16T16:55:27.877Z,1769.67
2022-09-16T16:58:25.138Z,1705.53
2022-09-16T17:01:26.930Z,1841.63
2022-09-16T17:04:11.426Z,2048.17
2022-09-16T17:07:26.661Z,1896.50
2022-09-16T17:10:07.728Z,1898.37
2022-09-16T17:15:38.587Z,1920.70
2022-09-16T17:21:37.224Z,2050.90
2022-09-16T17:24:11.248Z,1945.27
2022-09-16T17:26:55.481Z,1902.83
2022-09-16T17:32:29.552Z,2038.90
2022-09-16T17:35:04.865Z,1825.17
2022-09-16T17:40:45.464Z,2049.57
2022-09-16T17:43:22.177Z,1841.30
2022-09-16T17:45:56.946Z,2000.83
2022-09-16T17:48:46.629Z,1833.90
2022-09-16T17:51:26.917Z,2031.33
2022-09-16T17:54:03.259Z,2021.20
2022-09-16T17:56:39.497Z,2232.17
2022-09-16T17:59:26.222Z,2042.70
2022-09-16T18:02:22.212Z,2029.43
2022-09-16T18:05:25.568Z,2044.60
2022-09-16T18:07:58.422Z,2096.67
2022-09-16T18:10:29.095Z,1950.83
2022-09-16T18:12:59.733Z,2088.93
2022-09-16T18:15:30.804Z,1914.30
2022-09-16T18:18:01.734Z,1945.13
2022-09-16T18:20:34.851Z,2045.67
2022-09-16T18:23:05.991Z,2130.33
2022-09-16T18:25:38.672Z,1913.30
2022-09-16T18:28:09.283Z,2059.97
2022-09-16T18:30:40.233Z,2008.30
2022-09-16T18:33:11.242Z,2147.37
2022-09-16T18:35:43.209Z,1985.23
2022-09-16T18:38:14.168Z,2030.43
2022-09-16T18:40:45.615Z,2077.47
2022-09-16T18:43:16.292Z,1995.43
2022-09-16T18:45:47.589Z,1875.90
2022-09-16T18:48:18.055Z,1782.73
2022-09-16T18:50:49.999Z,1970.30
2022-09-16T18:53:20.743Z,1404.10
2022-09-16T18:55:54.032Z,825.20
2022-09-16T18:58:24.597Z,1786.27
2022-09-16T19:00:54.972Z,1786.80
2022-09-16T19:03:25.326Z,1890.00
2022-09-16T19:05:57.819Z,1955.67
2022-09-16T19:08:28.344Z,1982.60
2022-09-16T19:11:03.677Z,1993.57
2022-09-16T19:13:34.433Z,1237.60
2022-09-16T19:16:04.767Z,1618.77
2022-09-16T19:18:35.986Z,1757.70
2022-09-16T19:21:15.465Z,1441.37
2022-09-16T19:23:48.493Z,1530.40
2022-09-16T19:26:18.817Z,1592.33
2022-09-16T19:28:49.315Z,1861.97
2022-09-16T19:31:19.924Z,1796.63
2022-09-16T19:33:50.669Z,1894.93
2022-09-16T19:36:24.716Z,1919.80
2022-09-16T19:38:56.390Z,1958.60
2022-09-16T19:41:28.635Z,2027.70
2022-09-16T19:44:00.666Z,1909.13
2022-09-16T19:46:35.593Z,1971.80
2022-09-16T19:49:06.460Z,1779.13
2022-09-16T19:51:38.340Z,1131.20
2022-09-16T19:54:08.708Z,1980.70
2022-09-16T19:56:39.153Z,1758.77
2022-09-16T19:59:10.370Z,1630.13
2022-09-16T20:01:41.039Z,2266.67
2022-09-16T20:04:11.878Z,2266.67
2022-09-16T20:06:44.440Z,2266.67
2022-09-16T20:09:15.316Z,2266.67
2022-09-16T20:11:47.981Z,2266.67
2022-09-16T20:14:20.330Z,2266.67
2022-09-16T20:16:52.188Z,2266.67
2022-09-16T20:19:23.071Z,2266.67
2022-09-16T20:21:55.245Z,1721.17
2022-09-16T20:24:26.074Z,2266.67
2022-09-16T20:26:57.401Z,2266.67
2022-09-16T20:29:28.173Z,2266.67
2022-09-16T20:31:59.005Z,2266.67
2022-09-16T20:34:29.727Z,2266.67
2022-09-16T20:37:02.139Z,2266.67
2022-09-16T20:39:33.276Z,1703.47
2022-09-16T20:42:03.710Z,1923.63
2022-09-16T20:44:34.155Z,1335.87
2022-09-16T20:47:04.866Z,1617.83
2022-09-16T20:49:35.840Z,1266.00
2022-09-16T20:52:07.873Z,1147.67
2022-09-16T20:54:38.505Z,1433.33
2022-09-16T20:57:09.066Z,1494.03
2022-09-16T20:59:39.651Z,1525.60
2022-09-16T21:02:10.141Z,1546.83
2022-09-16T21:04:40.905Z,1382.07
2022-09-16T21:07:12.733Z,1538.13
2022-09-16T21:09:44.028Z,1652.27
2022-09-16T21:12:16.534Z,1299.73
2022-09-16T21:14:46.629Z,1955.43
2022-09-16T21:17:19.775Z,2266.67
2022-09-16T21:19:50.307Z,1694.37
2022-09-16T21:22:22.684Z,2266.67
2022-09-16T21:24:52.794Z,2266.67
2022-09-16T21:27:22.895Z,2266.67
2022-09-16T21:29:52.955Z,2266.67
2022-09-16T21:32:23.597Z,2266.67
2022-09-16T21:34:53.693Z,2266.67
2022-09-16T21:37:25.251Z,2266.67
2022-09-16T21:39:55.434Z,2266.67
2022-09-16T21:42:25.644Z,2266.67
2022-09-16T21:44:57.927Z,2266.67
2022-09-16T21:47:28.107Z,2266.67
2022-09-16T21:49:59.020Z,2266.67
2022-09-16T21:52:30.627Z,2266.67
2022-09-16T21:55:01.054Z,2266.67
2022-09-16T21:57:31.185Z,2266.67
2022-09-16T22:00:01.294Z,2266.67
2022-09-16T22:02:40.188Z,2266.67
2022-09-16T22:05:10.686Z,2266.67
2022-09-16T22:07:42.247Z,2266.67
2022-09-16T22:10:12.499Z,2266.67
2022-09-16T22:12:42.712Z,2266.67
2022-09-16T22:15:12.848Z,2266.67
2022-09-16T22:17:43.814Z,2266.67
2022-09-16T22:20:14.279Z,2266.67
2022-09-16T22:22:45.838Z,2266.67
2022-09-16T22:25:16.220Z,2266.67
2022-09-16T22:27:46.203Z,2266.67
2022-09-16T22:30:16.823Z,2266.67
2022-09-16T22:32:47.003Z,2266.67
2022-09-16T22:35:17.906Z,2266.67
2022-09-16T22:37:50.519Z,2266.67
2022-09-16T22:40:23.869Z,2266.67
2022-09-16T22:42:54.357Z,2266.67
2022-09-16T22:45:24.809Z,2266.67
2022-09-16T22:47:55.279Z,2266.67
2022-09-16T22:50:25.761Z,1709.83
2022-09-16T22:52:57.648Z,1846.67
2022-09-16T22:55:28.294Z,1821.53
2022-09-16T22:57:58.540Z,1825.10
2022-09-16T23:00:29.140Z,1780.77
2022-09-16T23:02:59.296Z,1731.50
2022-09-16T23:05:29.725Z,1897.57
2022-09-16T23:08:01.226Z,1884.20
2022-09-16T23:10:31.642Z,2266.67
2022-09-16T23:13:02.163Z,2266.67
2022-09-16T23:15:34.902Z,1656.47
2022-09-16T23:18:05.866Z,1846.03
2022-09-16T23:20:36.453Z,1868.27
2022-09-16T23:23:08.170Z,1634.90
2022-09-16T23:25:38.304Z,2266.67
2022-09-16T23:28:08.444Z,2266.67
2022-09-16T23:30:38.888Z,2266.67
2022-09-16T23:33:09.030Z,2266.67
2022-09-16T23:35:39.366Z,2266.67
2022-09-16T23:38:10.914Z,2266.67
2022-09-16T23:40:41.837Z,2266.67
2022-09-16T23:43:12.123Z,2266.67
2022-09-16T23:45:42.921Z,2266.67
2022-09-16T23:48:13.799Z,2266.67
2022-09-16T23:50:45.212Z,2266.67
2022-09-16T23:53:16.916Z,2266.67
2022-09-16T23:55:47.822Z,2266.67
2022-09-16T23:58:18.725Z,2266.67
